createdAt,value
2022-08-22T00:01:59.681Z,15.90
2022-08-22T00:03:11.074Z,19.20
2022-08-22T00:04:28.370Z,15.90
2022-08-22T00:06:38.075Z,15.90
2022-08-22T00:08:58.012Z,15.80
2022-08-22T00:11:08.507Z,15.80
2022-08-22T00:13:41.879Z,15.80
2022-08-22T00:16:09.086Z,15.90
2022-08-22T00:18:28.563Z,15.80
2022-08-22T00:20:56.905Z,15.80
2022-08-22T00:23:22.886Z,15.90
2022-08-22T00:25:36.718Z,15.80
2022-08-22T00:27:53.401Z,15.80
2022-08-22T00:30:05.685Z,15.80
2022-08-22T00:32:32.644Z,15.70
2022-08-22T00:34:48.697Z,15.90
2022-08-22T00:37:15.280Z,15.80
2022-08-22T00:39:28.986Z,15.80
2022-08-22T00:41:45.092Z,15.70
2022-08-22T00:44:17.147Z,15.60
2022-08-22T00:46:52.915Z,15.50
2022-08-22T00:49:04.132Z,15.60
2022-08-22T00:51:24.365Z,15.50
2022-08-22T00:53:53.036Z,15.50
2022-08-22T00:56:03.023Z,15.50
2022-08-22T00:58:32.035Z,15.50
2022-08-22T01:00:45.133Z,15.50
2022-08-22T01:03:05.565Z,15.30
2022-08-22T01:05:14.307Z,15.30
2022-08-22T01:08:03.614Z,15.30
2022-08-22T01:10:29.669Z,15.20
2022-08-22T01:13:14.131Z,15.10
2022-08-22T01:15:23.243Z,15.10
2022-08-22T01:17:55.555Z,15.30
2022-08-22T01:20:02.842Z,15.30
2022-08-22T01:22:24.914Z,15.40
2022-08-22T01:25:18.265Z,15.40
2022-08-22T01:28:01.541Z,15.40
2022-08-22T01:30:14.685Z,15.30
2022-08-22T01:32:53.394Z,15.30
2022-08-22T01:35:10.875Z,15.30
2022-08-22T01:37:21.783Z,15.30
2022-08-22T01:39:35.778Z,15.30
2022-08-22T01:42:12.470Z,15.30
2022-08-22T01:44:35.486Z,15.30
2022-08-22T01:46:44.923Z,15.20
2022-08-22T01:48:53.784Z,15.10
2022-08-22T01:51:13.155Z,15.00
2022-08-22T01:53:36.640Z,15.00
2022-08-22T01:56:03.241Z,15.00
2022-08-22T01:58:16.883Z,15.00
2022-08-22T02:00:35.318Z,15.20
2022-08-22T02:03:07.953Z,15.00
2022-08-22T02:05:51.419Z,14.80
2022-08-22T02:08:21.740Z,14.70
2022-08-22T02:10:54.543Z,14.60
2022-08-22T02:13:27.618Z,14.50
2022-08-22T02:15:43.990Z,14.40
2022-08-22T02:18:04.704Z,14.50
2022-08-22T02:20:26.364Z,14.60
2022-08-22T02:22:34.931Z,14.60
2022-08-22T02:25:09.029Z,14.50
2022-08-22T02:27:27.183Z,14.50
2022-08-22T02:29:44.841Z,14.50
2022-08-22T02:31:55.496Z,14.50
2022-08-22T02:34:00.263Z,14.50
2022-08-22T02:36:30.898Z,14.50
2022-08-22T02:38:42.901Z,14.50
2022-08-22T02:41:01.957Z,14.50
2022-08-22T02:43:18.616Z,14.40
2022-08-22T02:45:44.809Z,14.40
2022-08-22T02:48:00.737Z,14.30
2022-08-22T02:50:13.035Z,14.20
2022-08-22T02:52:18.962Z,14.20
2022-08-22T02:54:37.173Z,14.20
2022-08-22T02:57:04.033Z,14.30
2022-08-22T02:59:15.310Z,14.30
2022-08-22T03:01:40.834Z,14.20
2022-08-22T03:03:47.063Z,14.20
2022-08-22T03:06:01.706Z,14.40
2022-08-22T03:08:24.693Z,14.30
2022-08-22T03:10:35.063Z,14.30
2022-08-22T03:12:45.475Z,14.30
2022-08-22T03:15:03.066Z,14.20
2022-08-22T03:17:21.526Z,14.10
2022-08-22T03:19:28.462Z,14.10
2022-08-22T03:21:41.157Z,13.90
2022-08-22T03:23:48.523Z,14.00
2022-08-22T03:26:14.946Z,14.10
2022-08-22T03:28:26.137Z,14.10
2022-08-22T03:31:05.999Z,14.10
2022-08-22T03:33:16.088Z,14.10
2022-08-22T03:35:42.162Z,14.10
2022-08-22T03:37:45.326Z,14.10
2022-08-22T03:40:19.504Z,13.90
2022-08-22T03:42:51.933Z,13.80
2022-08-22T03:45:26.440Z,14.00
2022-08-22T03:47:36.877Z,13.80
2022-08-22T03:49:46.084Z,13.80
2022-08-22T03:52:00.856Z,13.90
2022-08-22T03:54:39.720Z,13.80
2022-08-22T03:57:00.514Z,13.70
2022-08-22T03:59:11.314Z,13.60
2022-08-22T04:01:41.235Z,13.70
2022-08-22T04:04:01.948Z,13.70
2022-08-22T04:06:22.577Z,13.70
2022-08-22T04:09:00.677Z,13.60
2022-08-22T04:11:33.832Z,13.60
2022-08-22T04:13:44.468Z,13.70
2022-08-22T04:16:04.247Z,13.60
2022-08-22T04:18:41.084Z,13.60
2022-08-22T04:21:04.441Z,13.50
2022-08-22T04:23:39.645Z,13.50
2022-08-22T04:25:50.798Z,13.60
2022-08-22T04:27:58.143Z,13.50
2022-08-22T04:30:14.943Z,13.40
2022-08-22T04:32:51.043Z,13.40
2022-08-22T04:35:06.813Z,13.60
2022-08-22T04:37:23.761Z,13.60
2022-08-22T04:39:34.694Z,13.60
2022-08-22T04:42:31.668Z,13.60
2022-08-22T04:44:56.240Z,13.70
2022-08-22T04:47:35.301Z,13.70
2022-08-22T04:50:02.035Z,13.70
2022-08-22T04:52:34.951Z,13.70
2022-08-22T04:55:13.907Z,13.70
2022-08-22T04:57:36.221Z,13.70
2022-08-22T04:59:38.718Z,13.70
2022-08-22T05:02:06.356Z,13.70
2022-08-22T05:04:30.188Z,13.70
2022-08-22T05:06:37.061Z,13.70
2022-08-22T05:08:40.413Z,13.60
2022-08-22T05:10:46.395Z,13.60
2022-08-22T05:12:55.892Z,13.70
2022-08-22T05:15:13.407Z,13.60
2022-08-22T05:17:18.791Z,13.70
2022-08-22T05:19:31.911Z,13.70
2022-08-22T05:21:40.385Z,13.70
2022-08-22T05:23:48.425Z,13.90
2022-08-22T05:25:55.444Z,14.10
2022-08-22T05:28:12.000Z,14.20
2022-08-22T05:30:21.657Z,14.40
2022-08-22T05:32:28.980Z,14.50
2022-08-22T05:34:37.307Z,14.60
2022-08-22T05:36:43.281Z,14.60
2022-08-22T05:38:52.364Z,14.70
2022-08-22T05:41:01.622Z,14.60
2022-08-22T05:43:04.783Z,14.60
2022-08-22T05:45:12.223Z,14.70
2022-08-22T05:47:24.438Z,14.80
2022-08-22T05:49:46.417Z,14.90
2022-08-22T05:52:00.587Z,15.00
2022-08-22T05:54:31.756Z,14.90
2022-08-22T05:56:54.747Z,15.00
2022-08-22T05:59:08.442Z,15.10
2022-08-22T06:01:31.502Z,15.10
2022-08-22T06:03:53.648Z,15.10
2022-08-22T06:06:03.267Z,15.10
2022-08-22T06:08:17.646Z,15.20
2022-08-22T06:10:43.672Z,15.20
2022-08-22T06:13:00.670Z,15.20
2022-08-22T06:15:11.767Z,15.30
2022-08-22T06:17:19.702Z,15.40
2022-08-22T06:19:21.939Z,15.40
2022-08-22T06:21:32.540Z,15.40
2022-08-22T06:23:49.257Z,15.50
2022-08-22T06:25:52.957Z,15.60
2022-08-22T06:27:56.016Z,15.60
2022-08-22T06:30:02.709Z,15.60
2022-08-22T06:32:44.564Z,15.60
2022-08-22T06:34:46.656Z,15.70
2022-08-22T06:36:50.901Z,15.70
2022-08-22T06:39:11.299Z,15.80
2022-08-22T06:41:13.129Z,15.80
2022-08-22T06:43:15.604Z,15.80
2022-08-22T06:45:30.774Z,15.80
2022-08-22T06:47:39.292Z,15.90
2022-08-22T06:49:44.388Z,16.00
2022-08-22T06:51:48.110Z,16.00
2022-08-22T06:53:53.783Z,16.00
2022-08-22T06:55:59.345Z,16.10
2022-08-22T06:58:06.113Z,16.20
2022-08-22T07:00:29.992Z,16.30
2022-08-22T07:02:53.103Z,16.30
2022-08-22T07:04:55.376Z,16.50
2022-08-22T07:06:59.136Z,16.60
2022-08-22T07:09:05.789Z,16.60
2022-08-22T07:11:11.428Z,16.60
2022-08-22T07:13:22.363Z,16.70
2022-08-22T07:15:37.701Z,16.70
2022-08-22T07:17:57.786Z,16.60
2022-08-22T07:20:23.725Z,16.80
2022-08-22T07:22:41.610Z,16.80
2022-08-22T07:24:59.377Z,16.80
2022-08-22T07:27:42.760Z,16.80
2022-08-22T07:30:02.106Z,17.00
2022-08-22T07:32:37.638Z,17.10
2022-08-22T07:35:11.370Z,17.20
2022-08-22T07:38:01.976Z,17.30
2022-08-22T07:40:45.174Z,17.30
2022-08-22T08:27:31.630Z,19.50
2022-08-22T08:29:34.989Z,19.90
2022-08-22T08:31:43.414Z,19.80
2022-08-22T08:33:50.338Z,19.90
2022-08-22T08:36:04.445Z,19.90
2022-08-22T08:38:08.748Z,19.90
2022-08-22T08:40:30.987Z,20.00
2022-08-22T08:43:12.752Z,20.10
2022-08-22T08:45:41.450Z,20.40
2022-08-22T08:48:01.772Z,20.60
2022-08-22T08:50:43.837Z,20.70
2022-08-22T08:53:16.775Z,21.00
2022-08-22T08:55:39.438Z,21.20
2022-08-22T08:57:59.797Z,21.30
2022-08-22T09:00:17.985Z,21.50
2022-08-22T09:02:49.181Z,21.50
2022-08-22T09:05:19.579Z,21.70
2022-08-22T09:07:52.445Z,21.90
2022-08-22T09:10:19.469Z,22.00
2022-08-22T09:12:36.454Z,22.20
2022-08-22T09:15:14.443Z,22.00
2022-08-22T09:17:16.237Z,22.10
2022-08-22T09:19:32.710Z,22.30
2022-08-22T09:21:49.516Z,22.60
2022-08-22T09:24:16.385Z,22.90
2022-08-22T09:26:21.314Z,23.00
2022-08-22T09:28:34.236Z,23.00
2022-08-22T09:31:16.988Z,23.00
2022-08-22T09:33:43.594Z,23.00
2022-08-22T09:36:05.254Z,23.10
2022-08-22T09:38:25.616Z,23.30
2022-08-22T09:40:30.260Z,23.50
2022-08-22T09:42:49.906Z,23.70
2022-08-22T09:45:14.914Z,23.90
2022-08-22T09:47:24.476Z,24.10
2022-08-22T09:49:48.287Z,23.90
2022-08-22T09:52:15.626Z,23.90
2022-08-22T09:54:37.863Z,24.00
2022-08-22T09:57:17.394Z,24.20
2022-08-22T09:59:34.254Z,24.20
2022-08-22T10:01:43.852Z,24.30
2022-08-22T10:03:45.595Z,24.70
2022-08-22T10:06:00.712Z,24.80
2022-08-22T10:08:37.582Z,24.90
2022-08-22T10:10:51.621Z,25.00
2022-08-22T10:13:04.255Z,25.10
2022-08-22T10:15:44.724Z,25.10
2022-08-22T10:18:01.267Z,25.30
2022-08-22T10:20:29.528Z,25.30
2022-08-22T10:22:44.578Z,25.40
2022-08-22T10:24:52.624Z,25.60
2022-08-22T10:27:01.853Z,26.10
2022-08-22T10:29:48.054Z,26.30
2022-08-22T10:31:59.548Z,26.50
2022-08-22T10:34:09.167Z,26.70
2022-08-22T10:36:15.883Z,26.90
2022-08-22T10:38:46.826Z,27.00
2022-08-22T10:41:02.423Z,27.30
2022-08-22T10:43:19.405Z,27.50
2022-08-22T10:45:36.178Z,27.80
2022-08-22T10:47:57.661Z,27.70
2022-08-22T10:50:08.720Z,27.70
2022-08-22T10:52:27.272Z,27.90
2022-08-22T10:54:51.308Z,28.20
2022-08-22T10:57:07.376Z,28.60
2022-08-22T10:59:38.055Z,28.80
2022-08-22T11:02:05.234Z,29.00
2022-08-22T11:04:34.568Z,28.50
2022-08-22T11:06:55.874Z,28.60
2022-08-22T11:09:23.495Z,29.20
2022-08-22T11:11:50.419Z,29.80
2022-08-22T11:13:55.286Z,29.80
2022-08-22T11:16:21.214Z,29.90
2022-08-22T11:18:57.877Z,30.30
2022-08-22T11:21:31.266Z,30.80
2022-08-22T11:23:41.744Z,30.70
2022-08-22T11:25:58.641Z,30.90
2022-08-22T11:28:23.694Z,30.70
2022-08-22T11:30:57.877Z,31.10
2022-08-22T11:33:14.805Z,31.30
2022-08-22T11:35:16.533Z,30.10
2022-08-22T11:38:04.581Z,30.60
2022-08-22T11:40:25.643Z,31.30
2022-08-22T11:42:39.743Z,31.60
2022-08-22T11:44:55.977Z,32.20
2022-08-22T11:46:59.905Z,32.60
2022-08-22T11:49:36.912Z,32.90
2022-08-22T11:52:01.380Z,33.30
2022-08-22T11:54:15.249Z,33.10
2022-08-22T11:56:45.089Z,33.70
2022-08-22T11:58:52.754Z,33.60
2022-08-22T12:01:17.297Z,33.70
2022-08-22T12:03:27.203Z,34.00
2022-08-22T12:05:39.710Z,34.50
2022-08-22T12:07:49.151Z,34.80
2022-08-22T12:10:06.841Z,33.90
2022-08-22T12:12:15.405Z,35.20
2022-08-22T12:14:29.187Z,35.80
2022-08-22T12:16:49.763Z,36.00
2022-08-22T12:19:00.822Z,34.60
2022-08-22T12:21:17.267Z,34.40
2022-08-22T12:23:49.283Z,35.50
2022-08-22T12:26:16.241Z,36.40
2022-08-22T12:28:43.802Z,36.00
2022-08-22T12:31:14.881Z,35.80
2022-08-22T12:33:22.031Z,36.30
2022-08-22T12:35:32.456Z,36.70
2022-08-22T12:37:56.922Z,35.40
2022-08-22T12:40:21.751Z,36.00
2022-08-22T12:42:50.164Z,37.00
2022-08-22T12:45:23.425Z,37.90
2022-08-22T12:47:42.235Z,37.90
2022-08-22T12:50:15.366Z,37.20
2022-08-22T12:52:24.971Z,37.20
2022-08-22T12:54:51.029Z,37.70
2022-08-22T12:57:27.290Z,38.30
2022-08-22T12:59:41.514Z,38.30
2022-08-22T13:01:47.028Z,37.90
2022-08-22T13:04:01.179Z,38.20
2022-08-22T13:06:38.121Z,38.70
2022-08-22T13:08:44.665Z,38.60
2022-08-22T13:10:50.398Z,37.70
2022-08-22T13:12:55.888Z,36.90
2022-08-22T13:15:53.894Z,36.10
2022-08-22T13:18:13.339Z,35.60
2022-08-22T13:20:28.934Z,36.70
2022-08-22T13:22:34.870Z,37.70
2022-08-22T13:24:52.401Z,36.80
2022-08-22T13:27:01.436Z,36.80
2022-08-22T13:29:26.755Z,36.60
2022-08-22T13:31:38.314Z,36.40
2022-08-22T13:33:47.698Z,36.90
2022-08-22T13:35:56.360Z,36.00
2022-08-22T13:38:06.363Z,36.50
2022-08-22T13:40:21.090Z,36.70
2022-08-22T13:42:30.196Z,37.50
2022-08-22T13:44:45.151Z,38.50
2022-08-22T13:47:13.006Z,37.70
2022-08-22T13:49:19.203Z,37.80
2022-08-22T13:51:46.673Z,37.90
2022-08-22T13:54:15.633Z,38.50
2022-08-22T13:56:21.848Z,38.00
2022-08-22T13:58:40.716Z,37.10
2022-08-22T14:01:18.298Z,36.70
2022-08-22T14:03:26.143Z,36.50
2022-08-22T14:05:41.331Z,35.30
2022-08-22T14:08:05.758Z,34.70
2022-08-22T14:10:27.543Z,34.40
2022-08-22T14:12:49.964Z,34.30
2022-08-22T14:14:59.546Z,33.90
2022-08-22T14:17:02.441Z,33.90
2022-08-22T14:19:15.522Z,34.20
2022-08-22T14:21:20.156Z,34.40
2022-08-22T14:23:29.317Z,34.40
2022-08-22T14:25:38.069Z,33.80
2022-08-22T14:28:00.868Z,33.50
2022-08-22T14:30:13.734Z,33.60
2022-08-22T14:32:22.810Z,33.60
2022-08-22T14:34:29.033Z,33.60
2022-08-22T14:37:18.952Z,33.50
2022-08-22T14:39:32.856Z,34.00
2022-08-22T14:41:56.022Z,34.70
2022-08-22T14:44:03.778Z,35.10
2022-08-22T14:46:14.387Z,35.60
2022-08-22T14:48:31.323Z,35.60
2022-08-22T14:51:01.221Z,35.60
2022-08-22T14:53:22.050Z,35.70
2022-08-22T14:55:27.074Z,36.10
2022-08-22T14:57:35.848Z,35.90
2022-08-22T14:59:50.145Z,36.60
2022-08-22T15:02:24.708Z,36.30
2022-08-22T15:04:42.240Z,35.80
2022-08-22T15:06:53.207Z,35.60
2022-08-22T15:08:57.059Z,35.70
2022-08-22T15:11:17.184Z,36.60
2022-08-22T15:13:25.305Z,36.80
2022-08-22T15:15:52.814Z,35.50
2022-08-22T15:17:57.289Z,34.70
2022-08-22T15:20:11.014Z,33.40
2022-08-22T15:22:31.716Z,32.40
2022-08-22T15:24:34.242Z,31.50
2022-08-22T15:26:40.949Z,30.90
2022-08-22T15:28:52.256Z,30.60
2022-08-22T15:30:58.113Z,30.30
2022-08-22T15:33:22.842Z,30.10
2022-08-22T15:35:31.209Z,29.70
2022-08-22T15:37:51.934Z,29.60
2022-08-22T15:40:08.311Z,30.40
2022-08-22T15:42:30.482Z,31.80
2022-08-22T15:44:35.373Z,32.60
2022-08-22T15:47:28.537Z,34.70
2022-08-22T15:49:49.194Z,36.20
2022-08-22T15:52:01.478Z,37.10
2022-08-22T15:54:24.917Z,37.60
2022-08-22T15:56:30.094Z,37.60
2022-08-22T15:58:33.353Z,38.00
2022-08-22T16:01:02.310Z,37.40
2022-08-22T16:03:23.284Z,37.00
2022-08-22T16:05:54.532Z,37.70
2022-08-22T16:08:20.822Z,37.90
2022-08-22T16:10:22.572Z,37.80
2022-08-22T16:12:46.216Z,37.70
2022-08-22T16:14:50.773Z,37.60
2022-08-22T16:17:03.506Z,37.50
2022-08-22T16:19:08.636Z,36.90
2022-08-22T16:21:13.359Z,36.40
2022-08-22T16:23:15.078Z,36.10
2022-08-22T16:25:17.322Z,35.70
2022-08-22T16:27:25.466Z,35.70
2022-08-22T16:29:33.929Z,35.90
2022-08-22T16:31:48.815Z,35.70
2022-08-22T16:33:51.183Z,34.90
2022-08-22T16:36:22.304Z,34.50
2022-08-22T16:38:36.673Z,33.80
2022-08-22T16:40:47.629Z,33.00
2022-08-22T16:43:11.767Z,32.30
2022-08-22T16:45:18.083Z,32.00
2022-08-22T16:47:30.050Z,31.80
2022-08-22T16:49:35.269Z,31.60
2022-08-22T16:52:15.395Z,31.40
2022-08-22T16:54:47.285Z,31.20
2022-08-22T16:57:02.716Z,30.90
2022-08-22T16:59:44.290Z,30.70
2022-08-22T17:01:49.226Z,30.50
2022-08-22T17:04:10.796Z,30.30
2022-08-22T17:06:32.431Z,30.00
2022-08-22T17:09:04.781Z,29.60
2022-08-22T17:11:30.059Z,29.30
2022-08-22T17:14:09.061Z,28.80
2022-08-22T17:16:26.001Z,28.50
2022-08-22T17:18:40.224Z,28.20
2022-08-22T17:20:49.455Z,28.10
2022-08-22T17:22:54.425Z,28.10
2022-08-22T17:25:29.035Z,27.90
2022-08-22T17:27:37.198Z,27.60
2022-08-22T17:29:59.914Z,27.40
2022-08-22T17:32:21.908Z,27.40
2022-08-22T17:34:29.662Z,27.30
2022-08-22T17:36:58.018Z,27.30
2022-08-22T17:39:18.622Z,27.10
2022-08-22T17:41:33.662Z,27.00
2022-08-22T17:43:48.581Z,26.90
2022-08-22T17:46:29.761Z,26.80
2022-08-22T17:48:40.658Z,26.70
2022-08-22T17:50:56.059Z,26.60
2022-08-22T17:53:08.047Z,26.40
2022-08-22T17:55:33.220Z,26.20
2022-08-22T17:57:55.724Z,26.10
2022-08-22T18:00:16.386Z,26.00
2022-08-22T18:02:31.737Z,25.90
2022-08-22T18:04:47.567Z,25.60
2022-08-22T18:06:56.271Z,25.30
2022-08-22T18:09:17.807Z,25.10
2022-08-22T18:11:40.091Z,25.00
2022-08-22T18:13:45.713Z,24.90
2022-08-22T18:15:54.471Z,24.70
2022-08-22T18:18:31.161Z,24.60
2022-08-22T18:20:57.945Z,24.50
2022-08-22T18:23:35.667Z,24.30
2022-08-22T18:25:45.725Z,24.30
2022-08-22T18:27:56.024Z,24.40
2022-08-22T18:30:06.425Z,24.70
2022-08-22T18:32:21.018Z,24.80
2022-08-22T18:34:44.210Z,24.80
2022-08-22T18:37:06.657Z,24.70
2022-08-22T18:39:43.171Z,24.60
2022-08-22T18:41:50.534Z,24.50
2022-08-22T18:43:53.030Z,24.40
2022-08-22T18:46:01.535Z,24.30
2022-08-22T18:48:06.902Z,24.20
2022-08-22T18:50:35.213Z,24.10
2022-08-22T18:52:38.505Z,23.90
2022-08-22T18:55:00.564Z,23.80
2022-08-22T18:57:30.514Z,23.70
2022-08-22T18:59:32.182Z,23.60
2022-08-22T19:02:00.190Z,23.60
2022-08-22T19:04:13.910Z,23.60
2022-08-22T19:06:39.816Z,23.60
2022-08-22T19:09:01.846Z,23.50
2022-08-22T19:11:20.786Z,23.50
2022-08-22T19:13:37.550Z,23.40
2022-08-22T19:16:17.727Z,23.30
2022-08-22T19:18:28.035Z,23.20
2022-08-22T19:20:52.848Z,23.00
2022-08-22T19:23:32.456Z,22.80
2022-08-22T19:25:34.233Z,22.60
2022-08-22T19:27:40.446Z,22.40
2022-08-22T19:29:55.193Z,22.20
2022-08-22T19:32:01.916Z,22.10
2022-08-22T19:34:16.576Z,22.00
2022-08-22T19:36:33.105Z,22.00
2022-08-22T19:39:04.801Z,21.90
2022-08-22T19:41:43.488Z,21.90
2022-08-22T19:43:46.448Z,21.90
2022-08-22T19:45:48.209Z,21.80
2022-08-22T19:48:09.463Z,21.70
2022-08-22T19:50:16.616Z,21.60
2022-08-22T19:52:28.509Z,21.40
2022-08-22T19:54:33.608Z,21.40
2022-08-22T19:56:44.496Z,21.40
2022-08-22T19:59:13.720Z,21.40
2022-08-22T20:01:37.222Z,21.30
2022-08-22T20:03:53.164Z,21.20
2022-08-22T20:06:42.918Z,21.20
2022-08-22T20:09:23.361Z,21.20
2022-08-22T20:11:37.787Z,21.10
2022-08-22T20:13:39.736Z,21.10
2022-08-22T20:16:07.234Z,21.00
2022-08-22T20:18:12.365Z,21.00
2022-08-22T20:20:35.741Z,20.90
2022-08-22T20:22:48.715Z,20.80
2022-08-22T20:25:41.399Z,20.70
2022-08-22T20:27:42.179Z,20.60
2022-08-22T20:30:10.058Z,20.50
2022-08-22T20:32:16.619Z,20.50
2022-08-22T20:34:23.521Z,20.50
2022-08-22T20:36:28.752Z,20.40
2022-08-22T20:38:39.014Z,20.30
2022-08-22T20:40:56.291Z,20.30
2022-08-22T20:43:04.321Z,20.30
2022-08-22T20:45:16.057Z,20.20
2022-08-22T20:47:23.918Z,20.00
2022-08-22T20:49:50.089Z,19.90
2022-08-22T20:51:58.352Z,19.90
2022-08-22T20:54:15.571Z,19.90
2022-08-22T20:56:36.866Z,19.90
2022-08-22T20:58:40.569Z,19.90
2022-08-22T21:00:48.081Z,19.90
2022-08-22T21:03:11.284Z,19.80
2022-08-22T21:05:13.371Z,19.70
2022-08-22T21:07:22.740Z,19.60
2022-08-22T21:09:43.063Z,19.70
2022-08-22T21:11:50.306Z,19.60
2022-08-22T21:13:53.350Z,19.50
2022-08-22T21:16:02.434Z,19.50
2022-08-22T21:18:05.053Z,19.40
2022-08-22T21:20:21.838Z,19.40
2022-08-22T21:22:31.407Z,19.50
2022-08-22T21:24:33.174Z,19.50
2022-08-22T21:26:51.672Z,19.50
2022-08-22T21:29:01.833Z,19.50
2022-08-22T21:31:13.257Z,19.50
2022-08-22T21:33:24.021Z,19.40
2022-08-22T21:35:32.187Z,19.40
2022-08-22T21:37:34.069Z,19.40
2022-08-22T21:39:41.669Z,19.30
2022-08-22T21:41:49.662Z,19.30
2022-08-22T21:43:53.982Z,19.20
2022-08-22T21:45:56.043Z,19.10
2022-08-22T21:47:58.072Z,19.00
2022-08-22T21:50:01.623Z,19.00
2022-08-22T21:52:03.466Z,19.00
2022-08-22T21:54:20.735Z,19.00
2022-08-22T21:56:29.254Z,18.80
2022-08-22T21:58:36.633Z,18.80
2022-08-22T22:00:57.446Z,18.80
2022-08-22T22:03:00.961Z,18.80
2022-08-22T22:05:16.982Z,18.80
2022-08-22T22:07:18.870Z,18.70
2022-08-22T22:09:20.614Z,18.70
2022-08-22T22:11:22.469Z,18.60
2022-08-22T22:13:28.360Z,18.60
2022-08-22T22:15:34.505Z,18.60
2022-08-22T22:17:36.267Z,18.60
2022-08-22T22:19:38.722Z,18.60
2022-08-22T22:21:40.450Z,18.60
2022-08-22T22:23:42.215Z,18.60
2022-08-22T22:25:45.678Z,18.60
2022-08-22T22:27:48.140Z,18.50
2022-08-22T22:29:49.937Z,18.40
2022-08-22T22:31:52.220Z,18.50
2022-08-22T22:33:53.979Z,18.50
2022-08-22T22:35:59.516Z,18.60
2022-08-22T22:38:02.018Z,18.50
2022-08-22T22:40:07.615Z,18.40
2022-08-22T22:42:09.793Z,18.40
2022-08-22T22:44:11.493Z,18.40
2022-08-22T22:46:13.236Z,18.30
2022-08-22T22:48:17.545Z,18.20
2022-08-22T22:50:26.627Z,18.30
2022-08-22T22:52:28.397Z,18.30
2022-08-22T22:54:30.441Z,18.30
2022-08-22T22:56:32.258Z,18.40
2022-08-22T22:58:36.126Z,18.40
2022-08-22T23:00:39.304Z,18.40
2022-08-22T23:02:41.470Z,18.30
2022-08-22T23:04:45.079Z,18.30
2022-08-22T23:06:47.847Z,18.30
2022-08-22T23:08:49.855Z,18.20
2022-08-22T23:10:51.596Z,18.20
2022-08-22T23:12:53.339Z,18.10
2022-08-22T23:14:55.218Z,18.00
2022-08-22T23:17:00.628Z,17.90
2022-08-22T23:19:11.319Z,18.00
2022-08-22T23:21:16.176Z,18.00
2022-08-22T23:23:17.944Z,18.00
2022-08-22T23:25:19.780Z,17.90
2022-08-22T23:27:21.547Z,17.90
2022-08-22T23:29:23.389Z,17.80
2022-08-22T23:31:38.754Z,17.70
2022-08-22T23:33:40.985Z,17.60
2022-08-22T23:35:42.758Z,17.70
2022-08-22T23:37:44.691Z,17.70
2022-08-22T23:39:46.647Z,17.70
2022-08-22T23:41:48.945Z,17.60
2022-08-22T23:43:53.620Z,17.60
2022-08-22T23:45:55.408Z,17.60
2022-08-22T23:47:57.211Z,17.50
2022-08-22T23:49:59.000Z,17.60
2022-08-22T23:52:10.503Z,17.60
2022-08-22T23:54:12.603Z,17.50
2022-08-22T23:56:19.424Z,17.50
2022-08-22T23:58:21.920Z,17.40
